Terminal Aerodrome Forecast
Issued by NWS Goodland, KS

Home | Current Version | Previous Version | Text Only | Print | Product List | Glossary On
Versions: 1 2 3 4 5 6 7 8 9 10 11 12 13 14 15 16 17
000
FTUS43 KGLD 182320
TAFGLD
TAF
KGLD 182320Z 1900/1924 19011KT P6SM SCT200
     FM190600 22006KT 6SM BR SCT005
      TEMPO 1910/1914 3SM BR BKN005
     FM191500 26006KT P6SM SCT250=

USA.gov is the U.S. government's official web portal to all federal, state and local government web resources and services.